TIB weather

TibĂș Airport
TibĂș, Norte de Santander Department, Colombia

Public forecast

Using degrees Celsius for public forecast. Weather courtesy of forecast.io.

METAR (pilot weather report)

Report is more than 6 hours old.

Closest report is La Fria Airport, 36.0 nm (66.8 km) SE. Retrieved 2017/09/20 18:00 UTC (2 years ago):

SVLF 201800Z 00000KT 9999 SCT040 XX/XX Q1010

TAF (pilot weather forecast)

Closest forecast is Camilo Daza International Airport, 44.2 nm (81.9 km) SSE. Retrieved 2019/06/18 18:54 UTC (0 seconds ago):

TAF COR TAF SKCC 181630Z 1818/1918 15020KT 9999 SCT023 SCT090 BECMG 1820/1822 VRB02KT PROB30 TEMPO 1821/1902 5000 RADZ SCT016CB BECMG 1909/1911 18007KT TX34/1819Z TN24/1911Z